Time;durP1;ratioP1;P1;durP2;ratioP2;P2;SDS_P1;SDS_P2;PMS_P1;PMS_P2;Temp;Humidity;BMP_temperature;BMP_pressure;BME280_temperature;BME280_humidity;BME280_pressure;Samples;Min_cycle;Max_cycle;Signal;HPM_P1;HPM_P2
2021/05/24 00:00:51;;;;;;;;;2.00;2.00;;;;;21.29;35.90;99128.16;4988097;28;8843;-45
2021/05/24 00:03:16;;;;;;;;;2.00;2.00;;;;;21.06;36.32;99126.00;4986320;28;8831;-45
2021/05/24 00:05:42;;;;;;;;;2.00;2.00;;;;;20.99;36.24;99131.28;4988908;28;8782;-44
2021/05/24 00:08:08;;;;;;;;;2.00;2.00;;;;;20.93;36.37;99125.28;4984761;28;8946;-44
2021/05/24 00:10:36;;;;;;;;;2.00;2.00;;;;;20.04;36.38;98995.56;4987505;28;11521;-45
2021/05/24 00:13:06;;;;;;;;;2.00;2.00;;;;;20.89;36.37;99135.31;4989448;28;8938;-44
2021/05/24 00:15:34;;;;;;;;;1.20;1.20;;;;;20.89;36.41;99131.78;4968808;28;8816;-44
2021/05/24 00:18:00;;;;;;;;;1.00;1.00;;;;;20.86;36.55;99138.78;4967659;28;8941;-44
2021/05/24 00:20:29;;;;;;;;;2.00;2.00;;;;;20.85;36.48;99137.19;4988602;28;8881;-45
2021/05/24 00:22:55;;;;;;;;;2.00;2.00;;;;;20.56;36.39;99094.44;4985568;28;8803;-44
2021/05/24 00:25:21;;;;;;;;;1.00;1.00;;;;;20.83;36.40;99138.69;4985773;28;8815;-44
2021/05/24 00:27:47;;;;;;;;;2.00;2.00;;;;;20.80;36.57;99146.44;4981242;28;8930;-45
2021/05/24 00:30:13;;;;;;;;;2.00;2.00;;;;;20.78;36.53;99145.19;4970053;28;10095;-44
2021/05/24 00:32:39;;;;;;;;;2.00;2.00;;;;;21.08;36.20;99144.84;4977251;28;8806;-44
2021/05/24 00:35:06;;;;;;;;;1.00;1.00;;;;;20.91;36.22;99141.25;4987466;28;8782;-44
2021/05/24 00:37:32;;;;;;;;;1.20;1.20;;;;;20.84;36.45;99156.72;4984482;28;8950;-45
2021/05/24 00:39:57;;;;;;;;;2.00;2.00;;;;;20.79;36.44;99152.25;4990870;28;9091;-44
2021/05/24 00:42:23;;;;;;;;;1.25;1.25;;;;;20.77;36.51;99162.78;4985171;28;8886;-44
2021/05/24 00:44:48;;;;;;;;;2.00;2.00;;;;;20.65;36.76;99149.94;4986531;28;8850;-45
2021/05/24 00:47:14;;;;;;;;;2.00;2.00;;;;;20.71;36.65;99155.97;4986991;28;8815;-45
2021/05/24 00:49:39;;;;;;;;;2.00;2.00;;;;;20.69;36.67;99156.31;4981313;28;8786;-44
2021/05/24 00:52:05;;;;;;;;;2.00;2.00;;;;;20.68;36.78;99156.66;4988775;28;8829;-44
2021/05/24 00:54:30;;;;;;;;;1.00;1.00;;;;;20.68;36.66;99153.91;4965594;28;8820;-45
2021/05/24 00:56:59;;;;;;;;;1.00;1.00;;;;;20.66;36.68;99154.25;4969233;28;11684;-45
2021/05/24 00:59:25;;;;;;;;;1.60;1.60;;;;;20.66;36.70;99157.00;4963491;28;8777;-45
2021/05/24 01:01:51;;;;;;;;;1.50;1.50;;;;;20.64;36.83;99153.81;4968261;28;8867;-45
2021/05/24 01:04:18;;;;;;;;;2.00;2.00;;;;;20.77;36.67;99157.31;4966158;28;8972;-44
2021/05/24 01:06:45;;;;;;;;;1.80;1.80;;;;;20.95;36.44;99157.81;4983644;28;8787;-45
2021/05/24 01:09:10;;;;;;;;;1.80;1.80;;;;;20.72;36.59;99160.28;4974445;28;8852;-44
2021/05/24 01:11:36;;;;;;;;;2.00;2.00;;;;;20.65;36.83;99157.34;4980628;28;9523;-45
2021/05/24 01:14:02;;;;;;;;;1.40;1.40;;;;;20.57;36.74;99148.09;4983978;28;8909;-43
2021/05/24 01:16:28;;;;;;;;;1.20;1.20;;;;;20.60;36.86;99152.88;4982947;28;8836;-44
2021/05/24 01:18:53;;;;;;;;;1.00;1.00;;;;;20.58;36.93;99153.22;4962601;28;8820;-44
2021/05/24 01:21:22;;;;;;;;;1.25;1.25;;;;;20.58;37.00;99152.44;4979541;28;8946;-42
2021/05/24 01:23:47;;;;;;;;;2.00;2.00;;;;;20.56;36.85;99151.97;4969579;28;8915;-44
2021/05/24 01:26:14;;;;;;;;;2.00;2.00;;;;;20.51;36.79;99153.03;4963603;28;8829;-43
2021/05/24 01:28:40;;;;;;;;;1.20;1.20;;;;;20.54;36.96;99160.53;4963793;28;9464;-43
2021/05/24 01:31:06;;;;;;;;;2.60;2.00;;;;;20.53;37.08;99158.16;4983062;28;8807;-43
2021/05/24 01:33:36;;;;;;;;;2.00;2.00;;;;;20.50;36.96;99159.63;4976317;28;8779;-43
2021/05/24 01:36:12;;;;;;;;;2.00;2.00;;;;;20.46;36.85;99152.47;4975234;28;8806;-43
2021/05/24 01:38:40;;;;;;;;;2.00;2.00;;;;;20.77;36.74;99160.84;4979226;28;8849;-43
2021/05/24 01:41:07;;;;;;;;;2.00;2.00;;;;;20.70;36.95;99157.09;4978616;28;8840;-43
2021/05/24 01:43:33;;;;;;;;;1.20;1.20;;;;;20.54;37.13;99159.75;4974702;28;8805;-43
2021/05/24 01:45:59;;;;;;;;;2.00;2.00;;;;;20.53;36.93;99160.91;4981161;28;8941;-43
2021/05/24 01:48:25;;;;;;;;;2.00;2.00;;;;;20.51;36.95;99160.44;4977678;28;8917;-43
2021/05/24 01:50:52;;;;;;;;;2.00;2.00;;;;;20.51;37.04;99155.75;4977750;28;8809;-43
2021/05/24 01:53:18;;;;;;;;;1.60;1.60;;;;;20.50;36.96;99165.13;4977006;28;8803;-44
2021/05/24 01:55:46;;;;;;;;;2.40;2.40;;;;;20.42;36.77;99155.91;4980326;28;8731;-44
2021/05/24 01:58:11;;;;;;;;;2.00;2.00;;;;;20.50;36.73;99175.28;4983381;28;8900;-43
2021/05/24 02:00:37;;;;;;;;;1.00;1.00;;;;;20.49;36.96;99168.19;4962329;28;8802;-43
2021/05/24 02:03:03;;;;;;;;;1.00;1.00;;;;;20.50;36.98;99167.06;4970733;28;8825;-43
2021/05/24 02:05:29;;;;;;;;;1.00;1.00;;;;;20.33;36.94;99155.22;4972182;28;8927;-43
2021/05/24 02:07:59;;;;;;;;;1.00;1.00;;;;;20.37;37.36;99169.03;4964869;28;8791;-44
2021/05/24 02:10:27;;;;;;;;;1.00;1.00;;;;;20.27;37.23;99142.13;4977442;28;9656;-43
2021/05/24 02:12:53;;;;;;;;;1.00;1.00;;;;;20.69;36.86;99185.66;4978477;28;8783;-43
2021/05/24 02:15:25;;;;;;;;;1.60;1.60;;;;;20.48;37.12;99185.78;4980637;28;8799;-43
2021/05/24 02:17:51;;;;;;;;;3.20;2.20;;;;;20.41;37.13;99187.16;4977437;28;8891;-43
2021/05/24 02:20:27;;;;;;;;;1.50;1.50;;;;;20.16;37.24;99155.50;4968164;28;8796;-43
2021/05/24 02:22:57;;;;;;;;;1.00;1.00;;;;;20.36;37.27;99184.66;4961053;28;8806;-42
2021/05/24 02:25:24;;;;;;;;;1.40;1.40;;;;;20.27;37.04;99178.50;4984121;28;8807;-43
2021/05/24 02:27:50;;;;;;;;;1.00;1.00;;;;;20.34;37.22;99189.69;4980322;28;8852;-43
2021/05/24 02:30:17;;;;;;;;;2.00;2.00;;;;;20.32;37.15;99188.44;4972728;28;9029;-43
2021/05/24 02:32:43;;;;;;;;;1.60;1.60;;;;;20.32;37.23;99188.44;4981297;28;8819;-43
2021/05/24 02:35:12;;;;;;;;;1.60;1.00;;;;;20.32;37.17;99188.44;4974951;28;8767;-43
2021/05/24 02:37:38;;;;;;;;;2.00;2.00;;;;;20.30;37.21;99199.75;4977963;28;9850;-44
2021/05/24 02:40:06;;;;;;;;;1.80;1.80;;;;;20.30;37.31;99205.22;4980858;28;8948;-43
2021/05/24 02:42:32;;;;;;;;;1.80;1.80;;;;;20.32;37.36;99204.88;4974414;28;8802;-44
2021/05/24 02:44:57;;;;;;;;;1.00;1.00;;;;;20.41;37.07;99180.91;4971797;28;8791;-43
2021/05/24 02:47:22;;;;;;;;;2.00;2.00;;;;;20.48;37.05;99204.97;4978199;28;8802;-43
2021/05/24 02:49:48;;;;;;;;;1.75;1.00;;;;;20.35;37.26;99209.66;4978415;28;8822;-43
2021/05/24 02:52:13;;;;;;;;;2.00;2.00;;;;;20.00;37.11;99172.59;4973912;28;8830;-44
2021/05/24 02:54:39;;;;;;;;;2.00;2.00;;;;;20.30;37.32;99215.34;4976212;28;13951;-43
2021/05/24 02:57:05;;;;;;;;;1.60;1.60;;;;;20.01;37.30;99176.13;4977397;28;8839;-43
2021/05/24 02:59:30;;;;;;;;;2.00;2.00;;;;;20.08;37.29;99186.50;4971949;28;8802;-44
2021/05/24 03:01:56;;;;;;;;;1.00;1.00;;;;;20.25;37.23;99208.19;4981333;28;11517;-44
2021/05/24 03:04:27;;;;;;;;;1.60;1.60;;;;;20.29;37.44;99216.50;4975433;28;8838;-44
2021/05/24 03:06:52;;;;;;;;;1.00;1.00;;;;;20.29;37.34;99219.25;4977373;28;8843;-44
2021/05/24 03:09:17;;;;;;;;;1.75;1.75;;;;;20.28;37.22;99214.91;4973781;28;8793;-43
2021/05/24 03:11:43;;;;;;;;;1.25;1.25;;;;;20.29;37.24;99220.03;4974572;28;8827;-44
2021/05/24 03:14:08;;;;;;;;;1.25;1.25;;;;;20.27;37.11;99213.31;4980984;28;9530;-43
2021/05/24 03:16:34;;;;;;;;;2.00;2.00;;;;;20.45;37.33;99219.34;4973423;28;8807;-43
2021/05/24 03:18:59;;;;;;;;;1.00;1.00;;;;;20.54;37.00;99217.28;4978814;28;8826;-44
2021/05/24 03:21:24;;;;;;;;;1.50;1.50;;;;;20.65;36.00;99220.38;4975374;28;8793;-43
2021/05/24 03:23:50;;;;;;;;;2.00;2.00;;;;;20.81;34.61;99218.53;4976273;28;8865;-43
2021/05/24 03:26:15;;;;;;;;;1.00;1.00;;;;;20.93;33.83;99220.41;4982330;28;8782;-43
2021/05/24 03:28:44;;;;;;;;;1.50;1.50;;;;;21.13;33.94;99216.69;4978543;28;8758;-43
2021/05/24 03:31:09;;;;;;;;;1.00;1.00;;;;;21.01;34.95;99210.47;4983402;28;8826;-43
2021/05/24 03:33:35;;;;;;;;;1.25;1.25;;;;;20.92;35.69;99222.34;4971218;28;8829;-43
2021/05/24 03:36:00;;;;;;;;;1.20;1.20;;;;;20.91;36.07;99236.41;4976940;28;8806;-44
2021/05/24 03:38:25;;;;;;;;;2.00;2.00;;;;;20.60;36.23;99240.56;4980457;28;8791;-43
2021/05/24 03:40:51;;;;;;;;;1.25;1.25;;;;;20.82;34.87;99230.28;4971431;28;8932;-44
2021/05/24 03:43:16;;;;;;;;;1.00;1.00;;;;;20.94;34.63;99243.94;4974186;28;8802;-43
2021/05/24 03:45:41;;;;;;;;;1.00;1.00;;;;;21.08;33.49;99251.78;4976832;28;8834;-43
2021/05/24 03:48:08;;;;;;;;;1.00;1.00;;;;;21.13;34.53;99235.88;4975601;28;8921;-44
2021/05/24 03:50:33;;;;;;;;;2.00;1.60;;;;;21.12;35.33;99255.41;4974776;28;9106;-43
2021/05/24 03:52:59;;;;;;;;;1.00;1.00;;;;;21.05;35.70;99249.75;4969890;28;9608;-43
2021/05/24 03:55:24;;;;;;;;;1.00;1.00;;;;;20.79;35.46;99251.75;4976543;28;9518;-43
2021/05/24 03:57:53;;;;;;;;;2.50;2.50;;;;;20.85;35.17;99257.00;4974352;28;9805;-44
2021/05/24 04:00:18;;;;;;;;;1.00;1.00;;;;;20.94;34.84;99250.22;4976072;28;8820;-43
2021/05/24 04:02:44;;;;;;;;;1.00;1.00;;;;;20.96;33.94;99252.63;4971960;28;8876;-43
2021/05/24 04:05:29;;;;;;;;;1.25;1.25;;;;;21.44;34.02;99248.09;4977109;28;8909;-43
2021/05/24 04:07:57;;;;;;;;;1.00;1.00;;;;;21.47;34.58;99254.84;4972899;28;8778;-44
2021/05/24 04:10:28;;;;;;;;;1.00;1.00;;;;;21.30;35.14;99254.00;4977191;28;8810;-43
2021/05/24 04:12:53;;;;;;;;;3.20;2.40;;;;;20.96;35.27;99261.63;4983149;28;8931;-43
2021/05/24 04:15:19;;;;;;;;;2.00;2.00;;;;;20.98;34.94;99255.81;4972910;28;8968;-43
2021/05/24 04:17:47;;;;;;;;;1.00;1.00;;;;;21.17;34.11;99261.44;4977825;28;8929;-43
2021/05/24 04:20:13;;;;;;;;;1.00;1.00;;;;;21.11;33.66;99262.84;4976003;28;8791;-43
2021/05/24 04:22:40;;;;;;;;;2.00;2.00;;;;;21.36;34.03;99265.50;4972151;28;8745;-43
2021/05/24 04:25:06;;;;;;;;;2.00;2.00;;;;;21.31;34.71;99268.50;4980526;28;8825;-43
2021/05/24 04:27:31;;;;;;;;;1.80;1.80;;;;;21.23;35.18;99272.19;4961195;28;8805;-44
2021/05/24 04:29:56;;;;;;;;;1.00;1.00;;;;;21.00;35.24;99283.66;4973028;28;8913;-43
2021/05/24 04:32:22;;;;;;;;;1.00;1.00;;;;;20.90;35.44;99281.44;4974965;28;8836;-44
2021/05/24 04:34:47;;;;;;;;;1.00;1.00;;;;;21.11;34.71;99282.06;4973283;28;8794;-43
2021/05/24 04:37:12;;;;;;;;;2.00;2.00;;;;;21.09;34.07;99278.88;4974959;28;8826;-43
2021/05/24 04:39:42;;;;;;;;;1.25;1.25;;;;;21.28;33.92;99286.47;4974093;28;8873;-43
2021/05/24 04:42:07;;;;;;;;;1.00;1.00;;;;;21.31;34.55;99284.97;4975378;28;8828;-44
2021/05/24 04:44:33;;;;;;;;;2.00;1.25;;;;;21.23;35.03;99283.16;4978524;28;8798;-43
2021/05/24 04:46:58;;;;;;;;;1.00;1.00;;;;;21.05;35.13;99288.13;4971747;28;8820;-44
2021/05/24 04:49:23;;;;;;;;;1.50;1.50;;;;;20.79;35.35;99287.38;4959192;28;9622;-44
2021/05/24 04:51:49;;;;;;;;;1.50;1.50;;;;;21.01;34.67;99282.53;4978557;28;8795;-44
2021/05/24 04:54:14;;;;;;;;;1.00;1.00;;;;;21.07;34.46;99283.91;4976330;28;8795;-44
2021/05/24 04:56:39;;;;;;;;;1.75;1.75;;;;;21.08;33.57;99274.50;4979191;28;8827;-43
2021/05/24 04:59:05;;;;;;;;;1.00;1.00;;;;;21.31;34.34;99283.00;4979305;28;8798;-43
2021/05/24 05:01:30;;;;;;;;;1.00;1.00;;;;;21.25;34.75;99289.09;4980915;28;8876;-44
2021/05/24 05:03:55;;;;;;;;;2.00;2.00;;;;;21.17;35.22;99291.63;4981706;28;8977;-43
2021/05/24 05:06:20;;;;;;;;;1.00;1.00;;;;;20.91;35.20;99299.47;4976843;28;8806;-44
2021/05/24 05:08:46;;;;;;;;;1.00;1.00;;;;;20.70;35.44;99305.09;4973989;28;8795;-43
2021/05/24 05:11:14;;;;;;;;;1.00;1.00;;;;;20.60;35.76;99311.81;4975844;28;8817;-44
2021/05/24 05:13:41;;;;;;;;;1.00;1.00;;;;;20.71;35.95;99310.22;4980770;28;8863;-43
2021/05/24 05:16:06;;;;;;;;;1.60;1.60;;;;;21.06;34.22;99309.72;4979490;28;8840;-44
2021/05/24 05:18:32;;;;;;;;;1.00;1.00;;;;;20.98;33.49;99300.50;4962200;28;9588;-43
2021/05/24 05:20:58;;;;;;;;;2.00;2.00;;;;;21.29;33.53;99320.97;4974444;28;8803;-43
2021/05/24 05:23:23;;;;;;;;;2.00;2.00;;;;;21.29;34.43;99320.19;4978568;28;8805;-43
2021/05/24 05:25:48;;;;;;;;;1.00;1.00;;;;;21.24;34.96;99323.16;4979940;28;8787;-43
2021/05/24 05:28:14;;;;;;;;;1.00;1.00;;;;;21.06;35.12;99317.94;4979324;28;8823;-42
2021/05/24 05:30:40;;;;;;;;;1.20;1.20;;;;;20.68;35.39;99330.09;4984447;28;8807;-43
2021/05/24 05:33:05;;;;;;;;;1.00;1.00;;;;;20.64;35.59;99329.19;4981731;28;8810;-43
2021/05/24 05:35:30;;;;;;;;;2.00;2.00;;;;;20.57;35.67;99340.69;4984073;28;8941;-43
2021/05/24 05:37:56;;;;;;;;;1.00;1.00;;;;;20.80;35.39;99343.00;4979105;28;8797;-43
2021/05/24 05:40:22;;;;;;;;;1.25;1.25;;;;;21.04;34.04;99346.88;4982819;28;8791;-43
2021/05/24 05:42:48;;;;;;;;;1.00;1.00;;;;;21.07;33.27;99352.47;4979036;28;8809;-43
2021/05/24 05:45:16;;;;;;;;;2.00;1.00;;;;;21.07;33.84;99318.72;4976149;28;8893;-44
2021/05/24 05:47:42;;;;;;;;;1.80;1.80;;;;;21.26;34.50;99353.78;4976383;28;8821;-44
2021/05/24 05:50:09;;;;;;;;;1.00;1.00;;;;;21.18;35.01;99356.31;4963813;28;8810;-43
2021/05/24 05:52:35;;;;;;;;;1.00;1.00;;;;;20.98;35.00;99360.00;4962306;28;8796;-43
2021/05/24 05:55:02;;;;;;;;;1.60;1.60;;;;;20.72;35.35;99361.16;4962960;28;8826;-43
2021/05/24 05:57:27;;;;;;;;;1.00;1.00;;;;;20.62;35.51;99356.13;4976075;28;8969;-44
2021/05/24 05:59:53;;;;;;;;;1.25;1.25;;;;;20.58;35.71;99357.94;4973704;28;8960;-43
2021/05/24 06:02:18;;;;;;;;;1.00;1.00;;;;;20.87;34.59;99356.91;4981267;28;8799;-43
2021/05/24 06:04:43;;;;;;;;;1.50;1.00;;;;;20.97;34.07;99361.16;4978082;28;8873;-43
2021/05/24 06:07:09;;;;;;;;;1.00;1.00;;;;;21.11;33.34;99358.84;4980344;28;8818;-43
2021/05/24 06:09:34;;;;;;;;;1.00;1.00;;;;;21.26;34.18;99365.53;4974176;28;8807;-43
2021/05/24 06:12:00;;;;;;;;;1.25;1.25;;;;;21.18;34.97;99369.25;4977698;28;8867;-43
2021/05/24 06:14:25;;;;;;;;;2.60;1.60;;;;;21.10;35.26;99379.16;4964008;28;8774;-44
2021/05/24 06:16:51;;;;;;;;;2.00;2.00;;;;;20.85;35.11;99378.41;4966810;28;9518;-43
2021/05/24 06:19:16;;;;;;;;;2.00;1.00;;;;;20.64;35.55;99378.50;4973428;28;8793;-43
2021/05/24 06:21:42;;;;;;;;;2.00;2.00;;;;;20.56;35.65;99382.13;4980853;28;8794;-43
2021/05/24 06:24:08;;;;;;;;;1.40;1.40;;;;;20.52;35.79;99384.75;4977519;28;8787;-43
2021/05/24 06:26:34;;;;;;;;;1.20;1.20;;;;;20.89;34.19;99384.00;4978778;28;8787;-44
2021/05/24 06:28:59;;;;;;;;;1.50;1.50;;;;;20.94;34.35;99381.81;4979208;28;8821;-43
2021/05/24 06:31:25;;;;;;;;;1.00;1.00;;;;;21.03;33.71;99389.91;4974402;28;8793;-43
2021/05/24 06:33:50;;;;;;;;;1.25;1.25;;;;;21.15;34.40;99384.44;4980425;28;8822;-44
2021/05/24 06:36:16;;;;;;;;;1.00;1.00;;;;;21.13;35.00;99386.72;4977510;28;8813;-44
2021/05/24 06:38:41;;;;;;;;;1.00;1.00;;;;;21.06;35.30;99383.75;4976558;28;8805;-43
2021/05/24 06:41:06;;;;;;;;;2.00;2.00;;;;;20.76;35.26;99389.47;4972038;28;9913;-44
2021/05/24 06:43:32;;;;;;;;;2.00;2.00;;;;;20.61;35.65;99398.34;4975396;28;8799;-43
2021/05/24 06:45:57;;;;;;;;;1.00;1.00;;;;;20.51;35.79;99394.13;4979121;28;8840;-43
2021/05/24 06:48:22;;;;;;;;;1.50;1.50;;;;;20.62;35.95;99402.72;4976949;28;8791;-43
2021/05/24 06:50:47;;;;;;;;;1.00;1.00;;;;;20.95;34.09;99410.06;4975782;28;8785;-43
2021/05/24 06:53:13;;;;;;;;;1.50;1.50;;;;;20.92;33.57;99399.78;4975277;28;8819;-43
2021/05/24 06:55:39;;;;;;;;;1.00;1.00;;;;;21.16;33.64;99416.19;4974559;28;8771;-43
2021/05/24 06:58:05;;;;;;;;;1.00;1.00;;;;;20.86;34.59;99368.22;4977635;28;8862;-44
2021/05/24 07:00:30;;;;;;;;;1.00;1.00;;;;;21.07;35.05;99415.53;4973655;28;9618;-43
2021/05/24 07:02:55;;;;;;;;;1.00;1.00;;;;;20.93;35.35;99423.28;4977981;28;8799;-43
2021/05/24 07:05:21;;;;;;;;;2.00;2.00;;;;;20.69;35.34;99427.63;4972952;28;8803;-43
2021/05/24 07:07:46;;;;;;;;;1.00;1.00;;;;;20.56;35.55;99417.75;4972624;28;8822;-43
2021/05/24 07:10:13;;;;;;;;;2.00;2.00;;;;;20.42;35.60;99410.66;4975396;28;8823;-42
2021/05/24 07:12:38;;;;;;;;;1.20;1.20;;;;;20.49;36.18;99431.19;4973359;28;8896;-43
2021/05/24 07:15:05;;;;;;;;;1.60;1.60;;;;;20.87;34.47;99422.72;4972865;28;8826;-43
2021/05/24 07:17:30;;;;;;;;;2.00;2.00;;;;;20.91;34.21;99431.84;4974466;28;8888;-43
2021/05/24 07:19:56;;;;;;;;;1.00;1.00;;;;;21.08;33.78;99430.81;4972323;28;8819;-43
2021/05/24 07:22:21;;;;;;;;;2.00;2.00;;;;;21.16;34.28;99438.16;4972285;28;8818;-43
2021/05/24 07:24:46;;;;;;;;;2.00;2.00;;;;;21.07;35.00;99434.72;4979693;28;8807;-43
2021/05/24 07:27:12;;;;;;;;;2.00;2.00;;;;;20.95;35.13;99437.47;4972977;28;8945;-43
2021/05/24 07:29:37;;;;;;;;;1.75;1.75;;;;;20.60;35.41;99424.94;4960718;28;8804;-44
2021/05/24 07:32:08;;;;;;;;;1.00;1.00;;;;;20.53;35.55;99440.38;4961798;28;8884;-43
2021/05/24 07:34:33;;;;;;;;;1.00;1.00;;;;;20.50;35.55;99443.78;4976478;28;8775;-43
2021/05/24 07:36:59;;;;;;;;;1.00;1.00;;;;;20.55;36.10;99447.09;4973137;28;8845;-44
2021/05/24 07:39:25;;;;;;;;;2.00;1.60;;;;;20.89;34.25;99447.06;4972756;28;8859;-43
2021/05/24 07:41:50;;;;;;;;;1.00;1.00;;;;;20.90;33.94;99443.97;4969898;28;8846;-42
2021/05/24 07:44:15;;;;;;;;;1.00;1.00;;;;;21.13;33.63;99443.53;4975783;28;8925;-43
2021/05/24 07:46:41;;;;;;;;;2.00;1.00;;;;;21.15;34.49;99444.75;4969615;28;8793;-43
2021/05/24 07:49:06;;;;;;;;;1.00;1.00;;;;;21.07;35.06;99455.84;4955131;28;8801;-43
2021/05/24 07:51:31;;;;;;;;;1.00;1.00;;;;;20.93;35.51;99451.53;4970833;28;8795;-43
2021/05/24 07:53:57;;;;;;;;;1.00;1.00;;;;;20.64;35.43;99455.25;4974455;28;9593;-43
2021/05/24 07:56:22;;;;;;;;;1.75;1.25;;;;;20.49;35.54;99453.94;4961059;28;8822;-43
2021/05/24 07:58:47;;;;;;;;;2.00;2.00;;;;;20.44;35.72;99456.91;4956793;28;8767;-44
2021/05/24 08:01:13;;;;;;;;;1.00;1.00;;;;;20.40;35.85;99454.03;4976206;28;8819;-43
2021/05/24 08:03:38;;;;;;;;;1.75;1.75;;;;;20.77;34.60;99465.09;4971078;28;8825;-44
2021/05/24 08:06:04;;;;;;;;;1.00;1.00;;;;;20.91;34.42;99458.47;4973847;28;8795;-43
2021/05/24 08:08:29;;;;;;;;;1.00;1.00;;;;;21.05;33.55;99464.41;4975447;28;8897;-44
2021/05/24 08:10:55;;;;;;;;;2.00;2.00;;;;;21.15;34.23;99465.91;4975805;28;8787;-43
2021/05/24 08:13:20;;;;;;;;;1.00;1.00;;;;;21.06;34.86;99473.47;4972795;28;9569;-42
2021/05/24 08:15:45;;;;;;;;;1.75;1.75;;;;;20.86;35.48;99453.22;4975713;28;8810;-43
2021/05/24 08:18:11;;;;;;;;;2.00;2.00;;;;;20.67;35.17;99460.06;4977292;28;8883;-43
2021/05/24 08:20:37;;;;;;;;;1.00;1.00;;;;;20.50;35.50;99466.47;4976181;28;8806;-43
2021/05/24 08:23:04;;;;;;;;;1.00;1.00;;;;;20.45;35.61;99465.91;4976136;28;8889;-43
2021/05/24 08:25:30;;;;;;;;;1.00;1.00;;;;;20.32;35.86;99452.19;4973960;28;8818;-44
2021/05/24 08:27:55;;;;;;;;;1.00;1.00;;;;;20.76;34.56;99476.41;4979067;28;8921;-43
2021/05/24 08:30:21;;;;;;;;;1.50;1.50;;;;;20.79;34.54;99456.50;4975371;28;8835;-43
2021/05/24 08:32:47;;;;;;;;;1.00;1.00;;;;;20.99;33.69;99465.78;4965652;28;9522;-42
2021/05/24 08:35:13;;;;;;;;;1.00;1.00;;;;;21.09;34.57;99468.09;4966339;28;8791;-43
2021/05/24 08:37:38;;;;;;;;;1.50;1.50;;;;;20.75;34.96;99437.22;4978208;28;8805;-43
2021/05/24 08:40:06;;;;;;;;;1.00;1.00;;;;;20.86;35.53;99472.41;4978199;28;8807;-43
2021/05/24 08:42:34;;;;;;;;;1.00;1.00;;;;;20.60;35.41;99470.75;4956681;28;11442;-44
2021/05/24 08:45:01;;;;;;;;;1.00;1.00;;;;;20.45;35.71;99474.91;4968379;28;8795;-43
2021/05/24 08:47:29;;;;;;;;;1.00;1.00;;;;;20.39;35.91;99484.50;4979054;28;8812;-43
2021/05/24 08:49:54;;;;;;;;;1.00;1.00;;;;;20.35;36.16;99481.63;4980516;28;8775;-43
2021/05/24 08:52:20;;;;;;;;;1.25;1.25;;;;;20.72;34.89;99492.72;4977296;28;8827;-44
2021/05/24 08:54:46;;;;;;;;;1.75;1.75;;;;;20.76;34.19;99482.66;4978165;28;8857;-43
2021/05/24 08:57:11;;;;;;;;;1.20;1.20;;;;;20.97;33.59;99487.28;4973026;28;9616;-44
2021/05/24 08:59:36;;;;;;;;;1.00;1.00;;;;;21.04;34.46;99489.47;4974921;28;8841;-43
2021/05/24 09:02:02;;;;;;;;;1.00;1.00;;;;;21.01;35.04;99501.09;4969847;28;8794;-43
2021/05/24 09:04:48;;;;;;;;;1.00;1.00;;;;;20.89;35.22;99505.41;4959255;28;8829;-43
2021/05/24 09:07:15;;;;;;;;;1.00;1.00;;;;;20.59;35.47;99493.78;4977544;28;10691;-43
2021/05/24 09:10:01;;;;;;;;;1.20;1.20;;;;;20.12;35.75;99459.31;4980574;28;8833;-43
2021/05/24 09:12:33;;;;;;;;;1.00;1.00;;;;;20.47;35.87;99505.50;4958648;28;8793;-43
2021/05/24 09:15:08;;;;;;;;;1.00;1.00;;;;;20.51;35.88;99511.13;4962498;28;9381;-44
2021/05/24 09:17:42;;;;;;;;;1.00;1.00;;;;;20.90;34.16;99507.03;4977291;28;8823;-45
2021/05/24 09:20:19;;;;;;;;;1.20;1.20;;;;;21.05;33.40;99511.03;4976074;28;8925;-44
2021/05/24 09:22:45;;;;;;;;;1.00;1.00;;;;;20.97;33.48;99477.09;4972466;28;8838;-44
2021/05/24 09:25:11;;;;;;;;;1.00;1.00;;;;;21.08;34.25;99476.66;4978369;28;8803;-43
2021/05/24 09:27:40;;;;;;;;;2.00;2.00;;;;;21.09;34.91;99498.25;4976076;28;9899;-44
2021/05/24 09:30:07;;;;;;;;;1.00;1.00;;;;;21.03;34.99;99505.09;4959109;28;8834;-44
2021/05/24 09:32:34;;;;;;;;;1.00;1.00;;;;;20.71;35.24;99507.56;4958816;28;8901;-44
2021/05/24 09:35:05;;;;;;;;;1.00;1.00;;;;;20.58;35.44;99516.88;4960810;28;9040;-44
2021/05/24 09:37:36;;;;;;;;;1.00;1.00;;;;;20.52;35.47;99515.47;4973801;28;8822;-44
2021/05/24 09:40:17;;;;;;;;;2.00;1.40;;;;;20.48;35.59;99588.53;4975711;28;8791;-43
2021/05/24 09:42:43;;;;;;;;;1.00;1.00;;;;;21.17;34.00;99508.28;4974121;28;8795;-48
2021/05/24 09:45:19;;;;;;;;;1.00;1.00;;;;;21.88;31.42;99510.88;4959501;28;8879;-43
2021/05/24 09:47:46;;;;;;;;;1.00;1.00;;;;;22.06;30.05;99495.72;4951573;28;8830;-45
2021/05/24 09:50:14;;;;;;;;;1.20;1.00;;;;;22.47;29.33;99517.69;4956105;28;8785;-48
2021/05/24 09:52:41;;;;;;;;;2.40;2.00;;;;;22.50;28.61;99470.28;4957752;28;8807;-49
2021/05/24 09:55:13;;;;;;;;;1.40;1.40;;;;;22.96;27.54;99509.16;4976708;28;8811;-47
2021/05/24 09:58:00;;;;;;;;;1.40;1.00;;;;;23.09;26.86;99495.34;4975784;28;8984;-48
2021/05/24 10:01:02;;;;;;;;;1.80;1.80;;;;;23.37;26.49;99511.72;4974506;28;8807;-47
2021/05/24 10:03:22;;;;;;;;;2.00;2.00;;;;;23.41;26.10;99507.91;4973702;28;9615;-47
2021/05/24 10:05:51;;;;;;;;;1.00;1.00;;;;;23.28;25.67;99469.84;4928527;28;8817;-47
2021/05/24 10:08:16;;;;;;;;;1.20;1.20;;;;;23.53;25.79;99506.19;4973235;28;8883;-48
2021/05/24 10:10:42;;;;;;;;;1.00;1.00;;;;;23.68;25.42;99505.38;4976482;28;11049;-48
2021/05/24 10:13:08;;;;;;;;;1.80;1.80;;;;;23.72;25.21;99511.75;4977065;28;8884;-48
2021/05/24 10:15:38;;;;;;;;;1.00;1.00;;;;;23.79;25.17;99522.91;4976133;28;8834;-48
2021/05/24 10:18:04;;;;;;;;;1.40;1.00;;;;;23.84;25.33;99521.09;4973837;28;8836;-47
2021/05/24 10:20:31;;;;;;;;;1.00;1.00;;;;;23.84;25.06;99515.56;4975110;28;8819;-46
2021/05/24 10:22:57;;;;;;;;;2.00;2.00;;;;;23.89;24.85;99521.59;4973640;28;8809;-46
2021/05/24 10:25:23;;;;;;;;;1.00;1.00;;;;;23.61;25.38;99530.00;4973573;28;8833;-46
2021/05/24 10:27:49;;;;;;;;;1.75;1.75;;;;;21.61;32.33;99529.69;4956888;28;8840;-46
2021/05/24 10:30:15;;;;;;;;;2.00;2.00;;;;;21.14;33.28;99530.13;4969491;28;8813;-46
2021/05/24 10:33:10;;;;;;;;;1.80;1.80;;;;;20.97;34.21;99525.66;4961561;28;9887;-46
2021/05/24 10:35:38;;;;;;;;;2.00;2.00;;;;;20.91;34.30;99530.53;4969050;28;8822;-46
2021/05/24 10:38:32;;;;;;;;;2.40;1.20;;;;;19.94;34.49;99398.41;4964929;28;9809;-46
2021/05/24 10:41:13;;;;;;;;;1.00;1.00;;;;;21.18;32.23;99534.59;4960935;28;9642;-45
2021/05/24 10:43:49;;;;;;;;;1.40;1.40;;;;;23.39;27.45;99532.25;4975455;28;8831;-46
2021/05/24 10:46:24;;;;;;;;;1.00;1.00;;;;;24.02;26.41;99536.03;4974921;28;9793;-45
2021/05/24 10:48:55;;;;;;;;;2.00;2.00;;;;;23.92;26.48;99495.28;4974633;28;9646;-47
2021/05/24 10:51:21;;;;;;;;;1.60;1.60;;;;;24.19;25.91;99532.84;4960643;28;8993;-46
2021/05/24 10:53:49;;;;;;;;;1.25;1.25;;;;;24.14;26.44;99526.84;4967408;28;8996;-46
2021/05/24 10:56:19;;;;;;;;;2.00;2.00;;;;;24.15;25.80;99531.97;4968006;28;8798;-49
2021/05/24 10:58:45;;;;;;;;;1.60;1.60;;;;;24.16;25.90;99536.31;4958880;28;8787;-48
2021/05/24 11:01:11;;;;;;;;;1.00;1.00;;;;;24.24;25.61;99545.56;4976018;28;8791;-49
2021/05/24 11:03:42;;;;;;;;;2.00;2.00;;;;;24.19;25.21;99491.50;4973074;28;8855;-46
2021/05/24 11:06:11;;;;;;;;;1.00;1.00;;;;;24.37;25.37;99546.19;4963758;28;8863;-47
2021/05/24 11:08:39;;;;;;;;;1.00;1.00;;;;;24.34;25.47;99550.50;4961972;28;8819;-47
2021/05/24 11:11:24;;;;;;;;;1.00;1.00;;;;;24.36;25.10;99550.91;4971718;28;8813;-49
2021/05/24 11:14:05;;;;;;;;;1.00;1.00;;;;;24.64;24.51;99543.56;4974144;28;8783;-47
2021/05/24 11:16:33;;;;;;;;;11.80;11.00;;;;;24.72;24.49;99534.28;4969622;28;8989;-48
2021/05/24 11:19:16;;;;;;;;;17.00;15.60;;;;;23.93;25.81;99511.44;4970868;28;14347;-49
2021/05/24 11:21:49;;;;;;;;;5.40;5.40;;;;;23.97;26.84;99541.81;4972043;28;8842;-47
2021/05/24 11:27:09;;;;;;;;;3.80;2.80;;;;;23.86;25.80;99546.31;4957272;28;9309;-48
2021/05/24 11:29:35;;;;;;;;;2.00;2.00;;;;;23.95;25.64;99542.19;4952466;28;8837;-47
2021/05/24 11:32:24;;;;;;;;;1.25;1.25;;;;;24.00;25.78;99546.63;4954211;28;8834;-47
2021/05/24 11:34:51;;;;;;;;;2.00;2.00;;;;;23.95;25.66;99552.41;4965997;28;8981;-48
2021/05/24 11:42:10;;;;;;;;;1.00;1.00;;;;;23.46;27.19;99569.34;5009242;27;13633;-48
2021/05/24 11:44:38;;;;;;;;;1.20;1.20;;;;;22.55;29.63;99566.22;5005186;28;9853;-48
2021/05/24 11:47:06;;;;;;;;;1.00;1.00;;;;;23.34;28.05;99557.28;5005184;28;8804;-49
2021/05/24 11:49:44;;;;;;;;;1.00;1.00;;;;;24.12;26.74;99565.78;4958837;28;9728;-50